Hong Kong, Hong Kong

4:58 AM HKT on November 21, 2014 (GMT +0800)
Hong Kong International | Change Station
CLOSE
Current Station
Airport
Location: Hong Kong,
Elevation: 23 ft
Nearby Weather Stations

Elev 23 ft 22.31 °N, 113.92 °E | Updated 28 minutes ago

Scattered Clouds
Scattered Clouds
70 °F
Feels Like 70 °F
N
12
Wind Variable Wind from East

Today
High -- | Low -- °F
--% Chance of Precip.
Yesterday
High -- | Low -- °F
Precip. -- in
6:40 AM 5:39 PM
Waning Crescent, 3% visible
Pressure 30.04 in
Visibility 6.2 miles
Clouds Few 2000 ft
Scattered Clouds 3000 ft
Dew Point 63 °F
Humidity 78%
Rainfall 0.00 in
Snow Depth Not available.
UV 0 out of 12
Pollen Not available.
Air Quality Not available.
Flu Activity Not available.
METAR VHHH 202030Z 08010KT 9999 FEW020 SCT030 21/17 Q1017 NOSIG

More Conditions Fewer Conditions

Pressure 30.04 in
Visibility 6.2 miles
Clouds Few 2000 ft
Scattered Clouds 3000 ft
Dew Point 63 °F
Humidity 78%
Rainfall 0.00 in
Snow Depth Not available.
UV 0 out of 12
Pollen Not available.
Air Quality Not available.
Flu Activity Not available.
METAR VHHH 202030Z 08010KT 9999 FEW020 SCT030 21/17 Q1017 NOSIG

More Conditions Fewer Conditions

10-Day Weather Forecast

Almanac

Astronomy

Nov. 21, 2014 Rise Set
Actual Time
Civil Twilight
Nautical Twilight
Astronomical Twilight
Moon
Length of Visible Light
Length of Day
Tomorrow will be .
, % of the Moon is Illuminated

Today's Extremes

Country Highs Country Lows

Community

WunderPhotos

Upload Photos

1,772,513 photos uploaded!

WunderBlogs® & News

Nearby

Air Quality

  Air Quality AQ Index Pollutant
Not available.

Snow Depth

Station Depth Elevation

Earthquake Activity

City Distance Mag. Time & Date
Minimum magnitude displayed is 2.5.

Coastal Water Temperatures

Place Temperature

Nearby Weather Stations